createdAt,value
2023-10-05T00:00:49.261Z,14.39
2023-10-05T00:03:16.350Z,14.43
2023-10-05T00:05:44.852Z,14.38
2023-10-05T00:08:11.935Z,14.35
2023-10-05T00:10:39.010Z,14.39
2023-10-05T00:13:06.227Z,14.42
2023-10-05T00:15:33.521Z,14.42
2023-10-05T00:18:00.711Z,14.42
2023-10-05T00:20:27.966Z,14.37
2023-10-05T00:22:56.601Z,14.40
2023-10-05T00:25:23.838Z,14.40
2023-10-05T00:27:50.996Z,14.39
2023-10-05T00:30:18.519Z,14.40
2023-10-05T00:32:45.726Z,14.40
2023-10-05T00:35:13.174Z,14.37
2023-10-05T00:37:40.235Z,14.35
2023-10-05T00:40:10.201Z,14.35
2023-10-05T00:42:37.470Z,14.32
2023-10-05T00:45:05.752Z,14.35
2023-10-05T00:47:33.320Z,14.33
2023-10-05T00:50:01.001Z,14.34
2023-10-05T00:52:29.008Z,14.33
2023-10-05T00:54:57.314Z,14.35
2023-10-05T00:57:26.204Z,14.35
2023-10-05T00:59:54.492Z,14.34
2023-10-05T01:02:22.064Z,14.28
2023-10-05T01:04:49.524Z,14.24
2023-10-05T01:07:16.673Z,14.36
2023-10-05T01:09:43.994Z,14.34
2023-10-05T01:12:11.149Z,14.37
2023-10-05T01:14:40.385Z,14.39
2023-10-05T01:17:07.562Z,14.35
2023-10-05T01:19:34.782Z,14.37
2023-10-05T01:22:01.931Z,14.39
2023-10-05T01:24:30.472Z,14.36
2023-10-05T01:26:57.644Z,14.34
2023-10-05T01:29:24.881Z,14.37
2023-10-05T01:31:52.015Z,14.32
2023-10-05T01:34:19.246Z,14.32
2023-10-05T01:36:46.337Z,14.34
2023-10-05T01:39:13.512Z,14.39
2023-10-05T01:41:41.903Z,14.35
2023-10-05T01:44:09.044Z,14.33
2023-10-05T01:46:36.195Z,14.33
2023-10-05T01:49:03.703Z,14.29
2023-10-05T01:51:30.905Z,14.24
2023-10-05T01:53:58.043Z,14.26
2023-10-05T01:56:25.284Z,14.23
2023-10-05T01:58:53.695Z,14.24
2023-10-05T02:01:21.183Z,14.24
2023-10-05T02:03:48.596Z,14.16
2023-10-05T02:06:15.810Z,14.20
2023-10-05T02:08:43.472Z,14.17
2023-10-05T02:11:17.415Z,14.17
2023-10-05T02:13:44.664Z,14.16
2023-10-05T02:16:14.418Z,14.16
2023-10-05T02:18:41.651Z,14.25
2023-10-05T02:21:13.109Z,14.32
2023-10-05T02:23:40.291Z,14.32
2023-10-05T02:26:08.265Z,14.41
2023-10-05T02:28:35.972Z,14.32
2023-10-05T02:31:03.102Z,14.21
2023-10-05T02:33:31.615Z,14.30
2023-10-05T02:35:59.212Z,14.29
2023-10-05T02:38:26.617Z,14.24
2023-10-05T02:40:53.691Z,14.22
2023-10-05T02:43:20.928Z,14.30
2023-10-05T02:45:47.989Z,14.26
2023-10-05T02:48:15.200Z,14.24
2023-10-05T02:50:43.642Z,14.25
2023-10-05T02:53:10.788Z,14.27
2023-10-05T02:55:37.975Z,14.30
2023-10-05T02:58:05.341Z,14.34
2023-10-05T03:00:32.872Z,14.36
2023-10-05T03:03:00.379Z,14.35
2023-10-05T03:05:27.644Z,14.35
2023-10-05T03:07:56.419Z,14.31
2023-10-05T03:10:23.611Z,14.35
2023-10-05T03:12:51.024Z,14.35
2023-10-05T03:15:18.770Z,14.35
2023-10-05T03:17:47.557Z,14.39
2023-10-05T03:20:15.548Z,14.37
2023-10-05T03:22:42.754Z,14.40
2023-10-05T03:25:11.623Z,14.39
2023-10-05T03:27:39.252Z,14.38
2023-10-05T03:30:07.976Z,14.39
2023-10-05T03:32:35.433Z,14.41
2023-10-05T03:35:02.555Z,14.50
2023-10-05T03:37:29.753Z,14.53
2023-10-05T03:39:56.919Z,14.48
2023-10-05T03:42:25.384Z,14.48
2023-10-05T03:44:54.679Z,14.48
2023-10-05T03:47:21.816Z,14.50
2023-10-05T03:49:49.083Z,14.51
2023-10-05T03:52:16.317Z,14.54
2023-10-05T03:54:43.526Z,14.49
2023-10-05T03:57:10.605Z,14.51
2023-10-05T03:59:39.853Z,14.49
2023-10-05T04:02:07.134Z,14.46
2023-10-05T04:04:34.761Z,14.56
2023-10-05T04:07:02.310Z,14.55
2023-10-05T04:09:29.712Z,14.60
2023-10-05T04:11:57.939Z,14.59
2023-10-05T04:14:25.231Z,14.56
2023-10-05T04:16:53.831Z,14.43
2023-10-05T04:19:20.957Z,14.53
2023-10-05T04:21:48.096Z,14.57
2023-10-05T04:24:15.242Z,14.55
2023-10-05T04:26:43.026Z,14.53
2023-10-05T04:29:10.308Z,14.57
2023-10-05T04:31:37.523Z,14.52
2023-10-05T04:34:06.219Z,14.55
2023-10-05T04:36:33.436Z,14.50
2023-10-05T04:39:00.555Z,14.45
2023-10-05T04:41:29.935Z,14.44
2023-10-05T04:43:57.435Z,14.40
2023-10-05T04:46:25.095Z,14.38
2023-10-05T04:48:52.384Z,14.34
2023-10-05T04:51:20.827Z,14.32
2023-10-05T04:53:47.904Z,14.32
2023-10-05T04:56:15.167Z,14.33
2023-10-05T04:58:42.257Z,14.35
2023-10-05T05:01:09.526Z,14.35
2023-10-05T05:03:36.736Z,14.29
2023-10-05T05:06:09.350Z,14.28
2023-10-05T05:08:38.068Z,14.25
2023-10-05T05:11:05.592Z,14.32
2023-10-05T05:13:32.669Z,14.30
2023-10-05T05:15:59.773Z,14.35
2023-10-05T05:18:27.053Z,14.34
2023-10-05T05:20:54.280Z,14.35
2023-10-05T05:23:21.424Z,14.42
2023-10-05T05:25:50.279Z,14.35
2023-10-05T05:28:17.452Z,14.44
2023-10-05T05:30:44.615Z,14.42
2023-10-05T05:33:11.887Z,14.40
2023-10-05T05:35:39.281Z,14.37
2023-10-05T05:38:06.792Z,14.39
2023-10-05T05:40:33.883Z,14.36
2023-10-05T05:43:02.349Z,14.36
2023-10-05T05:45:29.545Z,14.45
2023-10-05T05:47:56.941Z,14.43
2023-10-05T05:50:23.995Z,14.45
2023-10-05T05:52:51.046Z,14.41
2023-10-05T05:55:18.240Z,14.32
2023-10-05T05:57:45.488Z,14.46
2023-10-05T06:00:14.816Z,14.52
2023-10-05T06:02:42.118Z,14.58
2023-10-05T06:05:10.363Z,14.53
2023-10-05T06:07:37.718Z,14.48
2023-10-05T06:10:07.182Z,14.55
2023-10-05T06:12:34.374Z,14.64
2023-10-05T06:15:01.446Z,14.73
2023-10-05T06:17:31.097Z,14.74
2023-10-05T06:20:00.379Z,14.79
2023-10-05T06:22:27.550Z,14.82
2023-10-05T06:24:54.663Z,14.74
2023-10-05T06:27:21.775Z,14.80
2023-10-05T06:29:48.893Z,14.86
2023-10-05T06:32:15.968Z,14.88
2023-10-05T06:34:44.381Z,14.96
2023-10-05T06:37:11.549Z,15.06
2023-10-05T06:39:38.693Z,15.10
2023-10-05T06:42:05.968Z,14.99
2023-10-05T06:44:35.826Z,15.11
2023-10-05T06:47:03.117Z,15.24
2023-10-05T06:49:30.377Z,15.42
2023-10-05T06:51:59.006Z,15.22
2023-10-05T06:54:27.796Z,15.39
2023-10-05T06:56:55.064Z,15.33
2023-10-05T06:59:22.490Z,15.39
2023-10-05T07:01:49.933Z,15.46
2023-10-05T07:04:17.337Z,15.59
2023-10-05T07:06:44.442Z,15.60
2023-10-05T07:09:12.877Z,15.67
2023-10-05T07:11:40.017Z,15.95
2023-10-05T07:14:07.511Z,16.10
2023-10-05T07:16:34.728Z,16.05
2023-10-05T07:19:02.138Z,15.94
2023-10-05T07:21:29.274Z,16.20
2023-10-05T07:23:56.396Z,16.15
2023-10-05T07:26:24.813Z,16.03
2023-10-05T07:28:51.957Z,16.10
2023-10-05T07:31:19.125Z,16.20
2023-10-05T07:33:46.338Z,16.27
2023-10-05T07:36:13.464Z,16.19
2023-10-05T07:38:40.580Z,16.20
2023-10-05T07:41:07.718Z,16.08
2023-10-05T07:43:36.207Z,16.16
2023-10-05T07:46:03.354Z,16.29
2023-10-05T07:48:30.526Z,16.26
2023-10-05T07:50:57.622Z,16.44
2023-10-05T07:53:24.912Z,16.38
2023-10-05T07:55:52.756Z,16.42
2023-10-05T07:58:19.990Z,16.26
2023-10-05T08:00:48.565Z,16.29
2023-10-05T08:03:15.743Z,16.39
2023-10-05T08:05:43.004Z,16.40
2023-10-05T08:08:10.141Z,16.28
2023-10-05T08:10:37.374Z,16.30
2023-10-05T08:13:05.306Z,16.25
2023-10-05T08:15:32.576Z,16.27
2023-10-05T08:18:01.206Z,15.89
2023-10-05T08:20:28.916Z,15.80
2023-10-05T08:22:56.415Z,15.75
2023-10-05T08:25:23.692Z,15.67
2023-10-05T08:27:51.052Z,15.73
2023-10-05T08:30:18.143Z,15.72
2023-10-05T08:32:45.220Z,15.68
2023-10-05T08:35:14.141Z,15.85
2023-10-05T08:37:41.546Z,15.97
2023-10-05T08:40:13.019Z,15.81
2023-10-05T08:42:42.248Z,15.68
2023-10-05T08:45:10.038Z,15.72
2023-10-05T08:47:37.682Z,15.71
2023-10-05T08:50:05.438Z,15.73
2023-10-05T08:52:34.032Z,15.68
2023-10-05T08:55:01.371Z,15.80
2023-10-05T08:57:28.468Z,15.77
2023-10-05T08:59:56.488Z,15.69
2023-10-05T09:02:23.894Z,15.51
2023-10-05T09:04:51.510Z,15.34
2023-10-05T09:07:29.222Z,15.27
2023-10-05T09:09:57.706Z,15.15
2023-10-05T09:12:26.486Z,15.06
2023-10-05T09:15:04.800Z,15.05
2023-10-05T09:17:32.337Z,15.05
2023-10-05T09:20:21.634Z,15.05
2023-10-05T09:22:49.956Z,15.03
2023-10-05T09:25:18.662Z,15.10
2023-10-05T09:27:46.204Z,15.02
2023-10-05T09:30:17.649Z,15.15
2023-10-05T09:32:44.874Z,15.13
2023-10-05T09:35:25.488Z,15.23
2023-10-05T09:37:53.272Z,15.20
2023-10-05T09:40:22.204Z,15.21
2023-10-05T09:42:55.611Z,15.05
2023-10-05T09:45:23.568Z,15.09
2023-10-05T09:47:52.204Z,15.08
2023-10-05T09:50:20.123Z,15.00
2023-10-05T09:52:47.456Z,15.01
2023-10-05T09:55:16.159Z,15.04
2023-10-05T09:57:44.673Z,14.99
2023-10-05T10:00:12.811Z,14.96
2023-10-05T10:02:41.263Z,15.05
2023-10-05T10:05:13.393Z,15.14
2023-10-05T10:07:40.747Z,15.08
2023-10-05T10:10:08.936Z,14.99
2023-10-05T10:12:37.076Z,14.99
2023-10-05T10:15:06.853Z,15.07
2023-10-05T10:17:35.398Z,15.13
2023-10-05T10:20:03.961Z,15.15
2023-10-05T10:22:46.904Z,15.20
2023-10-05T10:25:28.868Z,15.17
2023-10-05T10:28:11.910Z,15.16
2023-10-05T10:30:43.815Z,15.30
2023-10-05T10:33:24.926Z,15.21
2023-10-05T10:35:52.084Z,15.40
2023-10-05T10:38:19.124Z,15.52
2023-10-05T10:41:00.225Z,15.38
2023-10-05T10:43:30.090Z,15.54
2023-10-05T10:45:58.539Z,15.53
2023-10-05T10:48:25.654Z,15.49
2023-10-05T10:50:53.369Z,15.46
2023-10-05T10:53:25.077Z,15.34
2023-10-05T10:55:58.776Z,15.33
2023-10-05T10:58:26.011Z,15.35
2023-10-05T11:00:54.247Z,15.42
2023-10-05T11:03:24.646Z,15.36
2023-10-05T11:05:52.075Z,15.29
2023-10-05T11:08:19.721Z,15.26
2023-10-05T11:10:47.212Z,15.34
2023-10-05T11:13:14.450Z,15.18
2023-10-05T11:15:52.043Z,15.24
2023-10-05T11:18:19.447Z,15.22
2023-10-05T11:20:47.917Z,15.30
2023-10-05T11:23:15.014Z,15.33
2023-10-05T11:25:48.468Z,15.36
2023-10-05T11:28:25.243Z,15.56
2023-10-05T11:31:10.575Z,15.80
2023-10-05T11:33:45.100Z,15.90
2023-10-05T11:36:30.963Z,16.15
2023-10-05T11:38:59.932Z,16.21
2023-10-05T11:41:28.256Z,16.46
2023-10-05T11:43:55.514Z,16.64
2023-10-05T11:46:22.836Z,16.75
2023-10-05T11:48:50.428Z,16.81
2023-10-05T11:51:18.596Z,17.23
2023-10-05T11:53:47.776Z,17.40
2023-10-05T11:56:14.840Z,17.89
2023-10-05T11:58:41.966Z,18.02
2023-10-05T12:01:09.154Z,17.77
2023-10-05T12:03:36.416Z,17.38
2023-10-05T12:06:03.928Z,17.58
2023-10-05T12:08:31.821Z,17.76
2023-10-05T12:11:00.274Z,18.09
2023-10-05T12:13:30.209Z,18.70
2023-10-05T12:15:57.356Z,18.93
2023-10-05T12:18:24.909Z,19.32
2023-10-05T12:20:52.064Z,19.84
2023-10-05T12:23:19.176Z,18.98
2023-10-05T12:25:46.722Z,18.49
2023-10-05T12:28:15.285Z,18.63
2023-10-05T12:30:42.540Z,18.79
2023-10-05T12:33:09.678Z,18.85
2023-10-05T12:35:36.915Z,18.86
2023-10-05T12:38:04.675Z,18.62
2023-10-05T12:40:31.988Z,18.52
2023-10-05T12:43:15.931Z,18.37
2023-10-05T12:45:46.355Z,17.82
2023-10-05T12:48:14.230Z,17.69
2023-10-05T12:50:41.548Z,17.52
2023-10-05T12:53:08.728Z,17.81
2023-10-05T12:55:35.875Z,18.24
2023-10-05T12:58:03.077Z,18.79
2023-10-05T13:00:30.188Z,18.70
2023-10-05T13:02:59.231Z,18.53
2023-10-05T13:05:30.754Z,18.24
2023-10-05T13:08:00.789Z,18.13
2023-10-05T13:10:28.341Z,18.43
2023-10-05T13:12:55.667Z,18.55
2023-10-05T13:15:22.828Z,18.78
2023-10-05T13:17:50.128Z,18.87
2023-10-05T13:20:19.074Z,18.49
2023-10-05T13:22:47.127Z,18.53
2023-10-05T13:25:14.632Z,18.54
2023-10-05T13:27:41.754Z,18.44
2023-10-05T13:30:10.495Z,18.90
2023-10-05T13:32:37.876Z,19.85
2023-10-05T13:35:05.564Z,20.27
2023-10-05T13:37:33.999Z,20.09
2023-10-05T13:40:01.216Z,20.15
2023-10-05T13:42:28.377Z,19.24
2023-10-05T13:44:55.718Z,18.53
2023-10-05T13:47:23.096Z,18.10
2023-10-05T13:49:50.198Z,17.74
2023-10-05T13:52:17.289Z,17.88
2023-10-05T13:54:45.669Z,17.84
2023-10-05T13:57:12.790Z,17.88
2023-10-05T13:59:39.852Z,17.97
2023-10-05T14:02:07.044Z,17.56
2023-10-05T14:04:34.247Z,17.50
2023-10-05T14:07:01.412Z,17.61
2023-10-05T14:09:28.447Z,17.42
2023-10-05T14:11:56.984Z,17.22
2023-10-05T14:14:24.206Z,17.39
2023-10-05T14:16:51.535Z,17.39
2023-10-05T14:19:19.687Z,17.48
2023-10-05T14:21:46.972Z,17.56
2023-10-05T14:24:14.309Z,17.59
2023-10-05T14:26:41.445Z,17.92
2023-10-05T14:29:09.895Z,17.82
2023-10-05T14:31:37.078Z,18.09
2023-10-05T14:34:04.358Z,17.82
2023-10-05T14:36:31.604Z,17.66
2023-10-05T14:38:58.719Z,17.52
2023-10-05T14:41:25.808Z,17.39
2023-10-05T14:43:52.896Z,17.30
2023-10-05T14:46:21.589Z,17.07
2023-10-05T14:48:48.678Z,17.33
2023-10-05T14:51:15.860Z,17.34
2023-10-05T14:53:43.104Z,17.49
2023-10-05T14:56:10.250Z,17.47
2023-10-05T14:58:37.354Z,17.69
2023-10-05T15:01:04.681Z,17.62
2023-10-05T15:03:33.196Z,17.50
2023-10-05T15:06:00.344Z,17.18
2023-10-05T15:08:27.494Z,17.25
2023-10-05T15:10:54.599Z,17.32
2023-10-05T15:13:21.850Z,17.43
2023-10-05T15:15:50.638Z,18.23
2023-10-05T15:18:18.715Z,18.57
2023-10-05T15:20:47.502Z,18.42
2023-10-05T15:23:14.713Z,18.39
2023-10-05T15:25:42.231Z,18.00
2023-10-05T15:28:09.878Z,17.96
2023-10-05T15:30:37.168Z,17.65
2023-10-05T15:33:04.676Z,17.25
2023-10-05T15:35:32.111Z,17.19
2023-10-05T15:38:01.453Z,17.31
2023-10-05T15:40:28.648Z,17.15
2023-10-05T15:42:55.886Z,17.18
2023-10-05T15:45:25.050Z,16.93
2023-10-05T15:47:53.137Z,16.94
2023-10-05T15:50:23.229Z,16.86
2023-10-05T15:52:52.134Z,16.91
2023-10-05T15:55:21.086Z,16.96
2023-10-05T15:57:49.437Z,16.93
2023-10-05T16:00:17.315Z,16.91
2023-10-05T16:02:49.209Z,16.89
2023-10-05T16:05:20.620Z,16.91
2023-10-05T16:07:49.294Z,16.91
2023-10-05T16:10:17.840Z,16.89
2023-10-05T16:12:47.312Z,16.91
2023-10-05T16:15:15.722Z,16.78
2023-10-05T16:17:43.557Z,16.83
2023-10-05T16:20:11.535Z,16.85
2023-10-05T16:22:38.617Z,16.78
2023-10-05T16:25:06.370Z,16.80
2023-10-05T16:27:33.473Z,16.79
2023-10-05T16:30:01.867Z,16.77
2023-10-05T16:32:28.945Z,16.74
2023-10-05T16:34:56.152Z,16.72
2023-10-05T16:37:23.236Z,16.59
2023-10-05T16:39:52.663Z,16.66
2023-10-05T16:42:19.734Z,16.65
2023-10-05T16:44:46.814Z,16.65
2023-10-05T16:47:15.369Z,16.57
2023-10-05T16:49:43.098Z,16.62
2023-10-05T16:52:10.408Z,16.53
2023-10-05T16:54:37.558Z,16.57
2023-10-05T16:57:05.028Z,16.56
2023-10-05T16:59:32.091Z,16.57
2023-10-05T17:01:59.245Z,16.53
2023-10-05T17:04:28.002Z,16.53
2023-10-05T17:06:55.339Z,16.56
2023-10-05T17:09:22.393Z,16.40
2023-10-05T17:11:49.602Z,16.45
2023-10-05T17:14:16.735Z,16.40
2023-10-05T17:16:44.001Z,16.37
2023-10-05T17:19:12.858Z,16.38
2023-10-05T17:21:41.284Z,16.42
2023-10-05T17:24:20.640Z,16.39
2023-10-05T17:26:48.916Z,16.46
2023-10-05T17:29:16.014Z,16.36
2023-10-05T17:31:43.168Z,16.33
2023-10-05T17:34:10.314Z,16.35
2023-10-05T17:36:37.453Z,16.29
2023-10-05T17:39:06.171Z,16.24
2023-10-05T17:41:33.602Z,16.19
2023-10-05T17:44:01.054Z,16.23
2023-10-05T17:46:28.598Z,16.17
2023-10-05T17:48:55.711Z,16.21
2023-10-05T17:51:22.953Z,16.35
2023-10-05T17:53:50.077Z,16.33
2023-10-05T17:56:18.524Z,16.17
2023-10-05T17:58:45.604Z,16.26
2023-10-05T18:01:15.695Z,16.18
2023-10-05T18:03:42.762Z,16.17
2023-10-05T18:06:09.917Z,16.25
2023-10-05T18:08:36.988Z,16.21
2023-10-05T18:11:04.071Z,16.23
2023-10-05T18:13:32.807Z,16.27
2023-10-05T18:15:59.984Z,16.24
2023-10-05T18:18:27.098Z,16.22
2023-10-05T18:20:54.396Z,16.18
2023-10-05T18:23:21.539Z,16.15
2023-10-05T18:25:48.665Z,16.10
2023-10-05T18:28:15.787Z,15.93
2023-10-05T18:30:44.259Z,15.90
2023-10-05T18:33:11.456Z,15.71
2023-10-05T18:35:40.033Z,15.68
2023-10-05T18:38:07.322Z,15.57
2023-10-05T18:40:34.975Z,15.51
2023-10-05T18:43:03.006Z,15.45
2023-10-05T18:45:30.730Z,15.45
2023-10-05T18:47:59.192Z,15.46
2023-10-05T18:50:26.621Z,15.38
2023-10-05T18:52:53.935Z,15.38
2023-10-05T18:55:21.162Z,15.37
2023-10-05T18:57:48.220Z,15.40
2023-10-05T19:00:16.244Z,15.37
2023-10-05T19:02:43.365Z,15.38
2023-10-05T19:05:11.977Z,15.37
2023-10-05T19:07:39.994Z,15.39
2023-10-05T19:10:08.524Z,15.37
2023-10-05T19:12:35.614Z,15.39
2023-10-05T19:15:03.931Z,15.39
2023-10-05T19:17:31.445Z,15.43
2023-10-05T19:19:58.631Z,15.44
2023-10-05T19:22:27.282Z,15.42
2023-10-05T19:24:54.450Z,15.39
2023-10-05T19:27:21.782Z,15.44
2023-10-05T19:29:48.861Z,15.50
2023-10-05T19:32:16.044Z,15.53
2023-10-05T19:34:43.190Z,15.58
2023-10-05T19:37:10.296Z,15.57
2023-10-05T19:39:38.793Z,15.50
2023-10-05T19:42:05.820Z,15.56
2023-10-05T19:44:33.358Z,15.48
2023-10-05T19:47:00.507Z,15.50
2023-10-05T19:49:27.662Z,15.50
2023-10-05T19:51:55.336Z,15.49
2023-10-05T19:54:23.481Z,15.52
2023-10-05T19:56:51.943Z,15.55
2023-10-05T19:59:19.152Z,15.48
2023-10-05T20:01:46.427Z,15.49
2023-10-05T20:04:13.846Z,15.51
2023-10-05T20:06:44.178Z,15.45
2023-10-05T20:09:11.410Z,15.46
2023-10-05T20:11:38.842Z,15.48
2023-10-05T20:14:07.553Z,15.50
2023-10-05T20:16:34.928Z,15.51
2023-10-05T20:19:02.271Z,15.44
2023-10-05T20:21:40.249Z,15.46
2023-10-05T20:24:08.245Z,15.51
2023-10-05T20:26:35.546Z,15.45
2023-10-05T20:29:02.923Z,15.46
2023-10-05T20:31:31.812Z,15.49
2023-10-05T20:33:59.074Z,15.50
2023-10-05T20:36:26.188Z,15.50
2023-10-05T20:38:53.290Z,15.48
2023-10-05T20:41:20.348Z,15.43
2023-10-05T20:43:47.488Z,15.50
2023-10-05T20:46:15.008Z,15.46
2023-10-05T20:48:44.515Z,15.43
2023-10-05T20:51:11.663Z,15.41
2023-10-05T20:53:38.746Z,15.46
2023-10-05T20:56:09.553Z,15.42
2023-10-05T20:58:36.791Z,15.44
2023-10-05T21:01:04.046Z,15.41
2023-10-05T21:03:32.027Z,15.43
2023-10-05T21:06:01.860Z,15.37
2023-10-05T21:08:29.014Z,15.45
2023-10-05T21:10:56.170Z,15.41
2023-10-05T21:13:23.401Z,15.41
2023-10-05T21:15:50.457Z,15.35
2023-10-05T21:18:17.630Z,15.39
2023-10-05T21:20:44.827Z,15.34
2023-10-05T21:23:13.279Z,15.43
2023-10-05T21:25:40.435Z,15.37
2023-10-05T21:28:07.688Z,15.37
2023-10-05T21:30:34.786Z,15.37
2023-10-05T21:33:01.866Z,15.39
2023-10-05T21:35:29.066Z,15.30
2023-10-05T21:37:56.196Z,15.33
2023-10-05T21:40:24.738Z,15.34
2023-10-05T21:42:52.076Z,15.26
2023-10-05T21:45:19.728Z,15.30
2023-10-05T21:47:47.238Z,15.25
2023-10-05T21:50:15.177Z,15.31
2023-10-05T21:52:42.566Z,15.29
2023-10-05T21:55:10.408Z,15.27
2023-10-05T21:57:38.887Z,15.25
2023-10-05T22:00:08.461Z,15.28
2023-10-05T22:02:36.106Z,15.17
2023-10-05T22:05:03.635Z,15.20
2023-10-05T22:07:30.802Z,15.19
2023-10-05T22:09:58.414Z,15.18
2023-10-05T22:12:25.849Z,15.12
2023-10-05T22:14:54.423Z,15.15
2023-10-05T22:17:21.683Z,15.11
2023-10-05T22:19:48.872Z,15.11
2023-10-05T22:22:16.025Z,15.08
2023-10-05T22:24:43.176Z,15.03
2023-10-05T22:27:10.325Z,15.07
2023-10-05T22:29:37.402Z,15.03
2023-10-05T22:32:05.908Z,15.07
2023-10-05T22:34:33.280Z,15.03
2023-10-05T22:37:00.327Z,15.00
2023-10-05T22:39:27.444Z,14.96
2023-10-05T22:41:54.722Z,15.02
2023-10-05T22:44:21.917Z,15.01
2023-10-05T22:46:49.204Z,14.99
2023-10-05T22:49:17.733Z,14.93
2023-10-05T22:51:44.866Z,14.95
2023-10-05T22:54:12.017Z,14.94
2023-10-05T22:56:44.715Z,14.94
2023-10-05T22:59:12.521Z,14.94
2023-10-05T23:01:41.016Z,14.93
2023-10-05T23:04:08.700Z,14.93
2023-10-05T23:06:37.168Z,14.95
2023-10-05T23:09:05.062Z,14.94
2023-10-05T23:11:32.183Z,14.97
2023-10-05T23:13:59.540Z,14.94
2023-10-05T23:16:26.675Z,14.92
2023-10-05T23:18:53.857Z,14.90
2023-10-05T23:21:20.937Z,14.89
2023-10-05T23:23:49.397Z,14.86
2023-10-05T23:26:16.500Z,14.88
2023-10-05T23:28:43.634Z,14.86
2023-10-05T23:31:10.893Z,14.83
2023-10-05T23:33:38.047Z,14.84
2023-10-05T23:36:05.766Z,14.84
2023-10-05T23:38:33.157Z,14.81
2023-10-05T23:41:02.406Z,14.74
2023-10-05T23:43:29.537Z,14.75
2023-10-05T23:45:56.649Z,14.68
2023-10-05T23:48:23.806Z,14.64
2023-10-05T23:50:50.853Z,14.64
2023-10-05T23:53:17.996Z,14.60
2023-10-05T23:55:45.483Z,14.59
2023-10-05T23:58:14.458Z,14.51
